createdAt,value
2022-10-18T00:02:07.580Z,6.47
2022-10-18T00:04:34.446Z,5.95
2022-10-18T00:07:00.971Z,7.20
2022-10-18T00:09:27.707Z,6.50
2022-10-18T00:11:55.044Z,6.70
2022-10-18T00:14:21.593Z,6.88
2022-10-18T00:16:48.272Z,5.78
2022-10-18T00:19:14.909Z,6.80
2022-10-18T00:21:41.599Z,7.93
2022-10-18T00:24:08.587Z,8.73
2022-10-18T00:26:35.136Z,9.43
2022-10-18T00:29:05.389Z,10.15
2022-10-18T00:31:34.466Z,9.73
2022-10-18T00:34:04.679Z,9.68
2022-10-18T00:36:34.200Z,10.13
2022-10-18T00:39:02.278Z,10.13
2022-10-18T00:41:31.254Z,10.45
2022-10-18T00:43:57.775Z,9.37
2022-10-18T00:46:25.959Z,10.15
2022-10-18T00:51:28.626Z,10.00
2022-10-18T00:53:55.251Z,9.68
2022-10-18T00:56:22.213Z,9.47
2022-10-18T00:58:49.436Z,9.70
2022-10-18T01:01:16.021Z,9.10
2022-10-18T01:03:42.649Z,9.38
2022-10-18T01:06:09.791Z,9.27
2022-10-18T01:08:55.694Z,9.70
2022-10-18T01:11:46.751Z,9.63
2022-10-18T01:14:26.362Z,10.32
2022-10-18T01:17:35.650Z,9.38
2022-10-18T01:20:35.849Z,9.52
2022-10-18T01:23:11.493Z,9.87
2022-10-18T01:25:38.014Z,10.18
2022-10-18T01:28:40.292Z,10.10
2022-10-18T01:31:14.945Z,9.88
2022-10-18T01:33:45.758Z,9.40
2022-10-18T01:36:21.046Z,10.63
2022-10-18T01:38:51.740Z,10.80
2022-10-18T01:41:20.441Z,10.82
2022-10-18T01:43:50.107Z,9.82
2022-10-18T01:46:21.902Z,10.07
2022-10-18T01:48:49.526Z,10.67
2022-10-18T01:51:19.999Z,9.93
2022-10-18T01:53:47.036Z,10.63
2022-10-18T01:56:36.377Z,10.30
2022-10-18T01:59:17.415Z,9.82
2022-10-18T02:02:07.924Z,10.13
2022-10-18T02:04:34.910Z,10.05
2022-10-18T02:07:15.100Z,10.65
2022-10-18T02:09:50.421Z,11.20
2022-10-18T02:12:19.211Z,12.05
2022-10-18T02:14:47.745Z,12.20
2022-10-18T02:17:16.943Z,12.40
2022-10-18T02:19:47.927Z,12.50
2022-10-18T02:22:16.081Z,11.82
2022-10-18T02:24:48.523Z,11.63
2022-10-18T02:27:15.358Z,11.50
2022-10-18T02:29:42.839Z,10.98
2022-10-18T02:32:24.277Z,11.02
2022-10-18T02:35:00.622Z,11.45
2022-10-18T02:37:35.090Z,10.90
2022-10-18T02:40:02.806Z,10.83
2022-10-18T02:42:44.322Z,10.95
2022-10-18T02:45:11.916Z,11.20
2022-10-18T02:47:38.499Z,11.20
2022-10-18T02:50:05.679Z,10.55
2022-10-18T02:52:32.420Z,10.97
2022-10-18T02:54:58.886Z,10.52
2022-10-18T02:57:25.416Z,10.80
2022-10-18T02:59:51.886Z,10.75
2022-10-18T03:02:18.650Z,10.75
2022-10-18T03:04:45.179Z,10.93
2022-10-18T03:07:11.696Z,10.85
2022-10-18T03:09:38.454Z,11.50
2022-10-18T03:12:05.111Z,10.88
2022-10-18T03:14:31.681Z,11.15
2022-10-18T03:16:58.345Z,11.80
2022-10-18T03:19:24.911Z,10.80
2022-10-18T03:21:51.424Z,10.82
2022-10-18T03:24:18.265Z,11.25
2022-10-18T03:26:44.785Z,10.98
2022-10-18T03:29:11.740Z,11.03
2022-10-18T03:31:38.462Z,11.40
2022-10-18T03:34:05.035Z,11.30
2022-10-18T03:36:31.529Z,11.50
2022-10-18T03:38:58.005Z,11.65
2022-10-18T03:41:24.616Z,11.27
2022-10-18T03:43:52.213Z,11.35
2022-10-18T03:46:18.725Z,10.93
2022-10-18T03:48:45.193Z,11.50
2022-10-18T03:51:11.681Z,10.63
2022-10-18T03:53:38.186Z,10.47
2022-10-18T03:56:04.979Z,10.77
2022-10-18T03:58:31.534Z,10.43
2022-10-18T04:00:58.084Z,10.60
2022-10-18T04:03:24.825Z,10.63
2022-10-18T04:05:51.400Z,10.33
2022-10-18T04:08:18.491Z,10.73
2022-10-18T04:10:45.814Z,10.25
2022-10-18T04:13:12.508Z,9.95
2022-10-18T04:15:39.011Z,10.43
2022-10-18T04:18:05.529Z,10.70
2022-10-18T04:20:31.961Z,10.55
2022-10-18T04:22:58.500Z,11.02
2022-10-18T04:25:25.410Z,10.18
2022-10-18T04:27:52.326Z,9.93
2022-10-18T04:30:19.083Z,10.50
2022-10-18T04:32:45.578Z,10.75
2022-10-18T04:35:12.237Z,10.68
2022-10-18T04:37:38.817Z,10.82
2022-10-18T04:40:05.865Z,10.77
2022-10-18T04:42:32.355Z,10.93
2022-10-18T04:44:58.901Z,10.13
2022-10-18T04:47:25.365Z,11.05
2022-10-18T04:49:51.865Z,10.65
2022-10-18T04:52:18.459Z,10.05
2022-10-18T04:54:44.949Z,10.13
2022-10-18T04:57:11.484Z,10.50
2022-10-18T04:59:38.051Z,10.65
2022-10-18T05:02:04.790Z,10.88
2022-10-18T05:04:31.569Z,11.20
2022-10-18T05:06:58.037Z,10.83
2022-10-18T05:09:24.842Z,11.65
2022-10-18T05:11:51.401Z,11.02
2022-10-18T05:14:17.806Z,10.48
2022-10-18T05:16:44.295Z,10.43
2022-10-18T05:19:10.814Z,10.60
2022-10-18T05:21:37.422Z,10.90
2022-10-18T05:24:04.171Z,9.90
2022-10-18T05:26:30.721Z,9.95
2022-10-18T05:28:57.516Z,10.70
2022-10-18T05:31:24.182Z,10.70
2022-10-18T05:33:50.758Z,11.35
2022-10-18T05:36:17.338Z,10.52
2022-10-18T05:38:45.298Z,10.85
2022-10-18T05:41:12.952Z,10.48
2022-10-18T05:43:40.332Z,10.63
2022-10-18T05:46:13.716Z,10.32
2022-10-18T05:48:43.483Z,10.60
2022-10-18T05:51:10.079Z,10.55
2022-10-18T05:53:38.255Z,10.05
2022-10-18T05:56:06.353Z,10.23
2022-10-18T05:58:33.312Z,10.07
2022-10-18T06:01:03.787Z,10.38
2022-10-18T06:03:30.876Z,9.50
2022-10-18T06:06:01.197Z,9.75
2022-10-18T06:08:27.855Z,10.60
2022-10-18T06:10:54.469Z,10.30
2022-10-18T06:13:21.004Z,9.88
2022-10-18T06:15:47.547Z,9.82
2022-10-18T06:18:14.085Z,9.90
2022-10-18T06:20:40.702Z,10.07
2022-10-18T06:23:07.632Z,9.75
2022-10-18T06:25:34.154Z,9.80
2022-10-18T06:28:00.647Z,10.13
2022-10-18T06:30:27.417Z,10.32
2022-10-18T06:32:53.934Z,10.30
2022-10-18T06:35:20.422Z,10.63
2022-10-18T06:37:46.900Z,10.65
2022-10-18T06:40:13.349Z,10.20
2022-10-18T06:42:40.314Z,9.98
2022-10-18T06:45:07.493Z,9.63
2022-10-18T06:47:34.062Z,10.70
2022-10-18T06:50:00.796Z,10.27
2022-10-18T06:52:27.651Z,11.18
2022-10-18T06:54:54.153Z,11.50
2022-10-18T06:57:21.559Z,12.27
2022-10-18T06:59:48.147Z,12.40
2022-10-18T07:02:17.134Z,13.32
2022-10-18T07:04:43.845Z,13.88
2022-10-18T07:07:10.411Z,11.60
2022-10-18T07:09:37.140Z,10.63
2022-10-18T07:12:03.917Z,9.80
2022-10-18T07:14:30.439Z,10.45
2022-10-18T07:16:59.470Z,10.27
2022-10-18T07:19:26.301Z,10.35
2022-10-18T07:21:52.992Z,9.47
2022-10-18T07:24:20.347Z,9.48
2022-10-18T07:26:47.047Z,9.07
2022-10-18T07:29:13.698Z,9.05
2022-10-18T07:31:40.852Z,9.13
2022-10-18T07:34:10.520Z,8.23
2022-10-18T07:36:37.487Z,8.18
2022-10-18T07:39:04.471Z,7.90
2022-10-18T07:41:33.368Z,7.20
2022-10-18T07:44:01.025Z,6.97
2022-10-18T07:46:27.693Z,7.43
2022-10-18T07:48:55.316Z,7.18
2022-10-18T07:51:22.209Z,7.15
2022-10-18T07:53:48.753Z,6.63
2022-10-18T07:56:21.058Z,6.63
2022-10-18T07:58:53.437Z,7.03
2022-10-18T08:01:21.899Z,7.55
2022-10-18T08:03:48.724Z,6.95
2022-10-18T08:06:17.952Z,7.05
2022-10-18T08:08:45.422Z,6.75
2022-10-18T08:11:17.407Z,6.67
2022-10-18T08:13:44.250Z,6.28
2022-10-18T08:16:13.255Z,6.65
2022-10-18T08:18:40.741Z,6.85
2022-10-18T08:21:09.771Z,6.88
2022-10-18T08:23:37.636Z,7.03
2022-10-18T08:26:06.692Z,6.53
2022-10-18T08:28:36.552Z,7.00
2022-10-18T08:31:05.146Z,7.47
2022-10-18T08:33:32.529Z,6.55
2022-10-18T08:36:01.216Z,6.87
2022-10-18T08:38:33.728Z,7.43
2022-10-18T08:41:13.019Z,6.80
2022-10-18T08:43:47.005Z,7.10
2022-10-18T08:46:14.065Z,6.95
2022-10-18T08:48:45.709Z,7.30
2022-10-18T08:51:31.573Z,6.70
2022-10-18T08:54:10.810Z,7.53
2022-10-18T08:56:39.684Z,7.13
2022-10-18T08:59:11.456Z,7.15
2022-10-18T09:02:00.527Z,7.27
2022-10-18T09:04:51.894Z,7.30
2022-10-18T09:07:24.425Z,7.35
2022-10-18T09:10:15.944Z,6.97
2022-10-18T09:13:13.423Z,6.55
2022-10-18T09:15:55.181Z,6.73
2022-10-18T09:18:30.901Z,7.00
2022-10-18T09:21:22.623Z,7.95
2022-10-18T09:23:51.100Z,7.25
2022-10-18T09:26:20.755Z,7.70
2022-10-18T09:29:29.678Z,7.10
2022-10-18T09:32:16.120Z,6.78
2022-10-18T09:34:56.527Z,6.50
2022-10-18T09:37:25.438Z,6.70
2022-10-18T09:39:59.944Z,7.32
2022-10-18T09:42:38.017Z,7.07
2022-10-18T09:45:26.805Z,7.15
2022-10-18T09:48:03.904Z,7.45
2022-10-18T09:50:34.477Z,6.80
2022-10-18T09:53:12.697Z,7.80
2022-10-18T09:55:51.776Z,7.13
2022-10-18T09:58:20.552Z,7.55
2022-10-18T10:00:52.647Z,7.60
2022-10-18T10:03:19.459Z,7.93
2022-10-18T10:05:46.029Z,8.13
2022-10-18T10:08:12.807Z,7.40
2022-10-18T10:10:41.355Z,8.27
2022-10-18T10:13:26.270Z,7.57
2022-10-18T10:16:03.225Z,7.80
2022-10-18T10:18:33.256Z,7.40
2022-10-18T10:21:03.125Z,7.03
2022-10-18T10:23:35.763Z,7.90
2022-10-18T10:26:05.038Z,8.02
2022-10-18T10:28:36.138Z,7.88
2022-10-18T10:31:19.713Z,8.27
2022-10-18T10:33:47.877Z,8.17
2022-10-18T10:36:20.177Z,7.88
2022-10-18T10:39:03.834Z,8.55
2022-10-18T10:44:05.098Z,8.77
2022-10-18T10:46:36.489Z,8.30
2022-10-18T10:49:35.047Z,7.72
2022-10-18T10:52:08.214Z,8.43
2022-10-18T10:54:38.953Z,8.10
2022-10-18T10:57:12.567Z,7.85
2022-10-18T10:59:48.430Z,7.70
2022-10-18T11:02:17.886Z,7.75
2022-10-18T11:04:55.543Z,7.13
2022-10-18T11:07:44.482Z,7.28
2022-10-18T11:10:15.758Z,6.43
2022-10-18T11:12:48.337Z,6.73
2022-10-18T11:15:25.306Z,6.68
2022-10-18T11:18:19.920Z,7.10
2022-10-18T11:20:56.246Z,7.35
2022-10-18T11:23:28.171Z,7.78
2022-10-18T11:26:07.073Z,7.20
2022-10-18T11:28:36.375Z,7.18
2022-10-18T11:31:24.651Z,6.93
2022-10-18T11:34:19.261Z,8.05
2022-10-18T11:37:36.036Z,7.82
2022-10-18T11:40:30.427Z,7.40
2022-10-18T11:43:03.392Z,7.43
2022-10-18T11:45:41.778Z,7.40
2022-10-18T11:48:20.149Z,7.82
2022-10-18T11:50:59.967Z,8.05
2022-10-18T11:53:52.018Z,7.23
2022-10-18T11:56:38.190Z,6.85
2022-10-18T11:59:26.659Z,7.35
2022-10-18T12:01:58.313Z,7.45
2022-10-18T12:04:35.224Z,7.65
2022-10-18T12:07:05.158Z,7.60
2022-10-18T12:09:39.800Z,7.10
2022-10-18T12:12:10.010Z,7.88
2022-10-18T12:14:40.572Z,7.85
2022-10-18T12:17:49.852Z,8.35
2022-10-18T12:20:40.006Z,7.77
2022-10-18T12:23:18.551Z,8.38
2022-10-18T12:25:53.629Z,7.90
2022-10-18T12:28:41.443Z,8.07
2022-10-18T12:31:19.072Z,8.40
2022-10-18T12:33:49.818Z,8.63
2022-10-18T12:36:22.195Z,8.20
2022-10-18T12:39:00.432Z,8.23
2022-10-18T12:41:30.249Z,7.82
2022-10-18T12:44:04.385Z,8.70
2022-10-18T12:46:54.943Z,8.63
2022-10-18T12:49:28.942Z,8.00
2022-10-18T12:51:59.469Z,8.20
2022-10-18T12:54:29.745Z,7.82
2022-10-18T12:56:57.386Z,7.93
2022-10-18T12:59:26.813Z,8.83
2022-10-18T13:01:53.413Z,8.40
2022-10-18T13:04:29.479Z,7.47
2022-10-18T13:07:05.218Z,7.90
2022-10-18T13:09:37.899Z,8.60
2022-10-18T13:12:10.389Z,8.20
2022-10-18T13:15:24.661Z,7.97
2022-10-18T13:18:19.785Z,8.68
2022-10-18T13:20:49.074Z,8.55
2022-10-18T13:23:38.263Z,8.65
2022-10-18T13:26:20.060Z,8.47
2022-10-18T13:28:56.819Z,9.25
2022-10-18T13:31:39.003Z,9.32
2022-10-18T13:34:24.077Z,9.27
2022-10-18T13:37:08.985Z,9.27
2022-10-18T13:39:37.009Z,9.40
2022-10-18T13:42:03.437Z,9.80
2022-10-18T13:44:37.628Z,9.63
2022-10-18T13:47:04.116Z,9.82
2022-10-18T13:49:39.536Z,9.07
2022-10-18T13:52:06.105Z,9.97
2022-10-18T13:55:00.238Z,10.00
2022-10-18T13:57:47.818Z,10.10
2022-10-18T14:00:28.703Z,9.80
2022-10-18T14:03:56.234Z,10.02
2022-10-18T14:06:25.280Z,9.63
2022-10-18T14:09:26.219Z,10.05
2022-10-18T14:12:35.701Z,10.18
2022-10-18T14:15:09.239Z,9.15
2022-10-18T14:17:51.510Z,8.98
2022-10-18T14:21:01.309Z,8.73
2022-10-18T14:23:34.608Z,9.20
2022-10-18T14:26:16.627Z,8.45
2022-10-18T14:29:00.463Z,9.30
2022-10-18T14:31:27.985Z,8.45
2022-10-18T14:33:58.273Z,8.23
2022-10-18T14:36:27.859Z,8.80
2022-10-18T14:39:00.323Z,8.27
2022-10-18T14:41:30.759Z,9.05
2022-10-18T14:44:15.630Z,8.13
2022-10-18T14:46:46.045Z,7.80
2022-10-18T14:49:14.030Z,7.60
2022-10-18T14:51:43.261Z,7.47
2022-10-18T14:54:19.180Z,8.27
2022-10-18T14:56:46.126Z,7.28
2022-10-18T14:59:24.595Z,7.27
2022-10-18T15:01:54.658Z,7.47
2022-10-18T15:04:27.664Z,7.25
2022-10-18T15:06:55.622Z,6.72
2022-10-18T15:09:24.106Z,7.28
2022-10-18T15:11:51.666Z,7.17
2022-10-18T15:14:19.821Z,7.40
2022-10-18T15:16:47.585Z,8.02
2022-10-18T15:19:13.966Z,7.97
2022-10-18T15:22:30.362Z,7.47
2022-10-18T15:25:08.431Z,6.90
2022-10-18T15:27:37.810Z,6.95
2022-10-18T15:30:38.424Z,7.53
2022-10-18T15:33:10.324Z,9.50
2022-10-18T15:35:38.840Z,15.20
2022-10-18T15:38:38.008Z,18.40
2022-10-18T15:41:36.485Z,16.92
2022-10-18T15:44:17.972Z,17.92
2022-10-18T15:46:46.023Z,18.05
2022-10-18T15:49:24.648Z,16.10
2022-10-18T15:52:10.664Z,12.60
2022-10-18T15:54:37.274Z,10.95
2022-10-18T15:57:09.092Z,9.23
2022-10-18T15:59:36.645Z,9.55
2022-10-18T16:02:03.243Z,12.93
2022-10-18T16:04:33.244Z,13.53
2022-10-18T16:07:00.463Z,12.88
2022-10-18T16:09:29.174Z,11.88
2022-10-18T16:11:57.294Z,11.18
2022-10-18T16:14:25.894Z,10.13
2022-10-18T16:16:55.418Z,9.50
2022-10-18T16:19:22.827Z,8.80
2022-10-18T16:21:49.989Z,8.98
2022-10-18T16:24:16.692Z,8.90
2022-10-18T16:26:43.417Z,8.85
2022-10-18T16:29:18.655Z,8.40
2022-10-18T16:31:46.689Z,8.30
2022-10-18T16:34:14.733Z,8.75
2022-10-18T16:36:41.482Z,8.50
2022-10-18T16:39:16.256Z,8.40
2022-10-18T16:41:43.309Z,8.70
2022-10-18T16:44:09.792Z,8.25
2022-10-18T16:46:36.704Z,8.50
2022-10-18T16:49:03.972Z,8.82
2022-10-18T16:51:30.481Z,8.55
2022-10-18T16:53:57.355Z,9.17
2022-10-18T16:56:30.326Z,9.82
2022-10-18T16:58:58.005Z,11.85
2022-10-18T17:01:25.165Z,10.70
2022-10-18T17:03:53.416Z,10.98
2022-10-18T17:06:26.950Z,10.50
2022-10-18T17:08:54.498Z,9.90
2022-10-18T17:11:23.368Z,10.32
2022-10-18T17:13:50.214Z,9.68
2022-10-18T17:19:03.194Z,11.40
2022-10-18T17:21:30.510Z,11.52
2022-10-18T17:24:00.459Z,12.05
2022-10-18T17:26:29.346Z,12.07
2022-10-18T17:28:59.143Z,12.45
2022-10-18T17:31:26.058Z,12.43
2022-10-18T17:33:54.672Z,12.88
2022-10-18T17:36:22.135Z,13.10
2022-10-18T17:38:52.517Z,12.95
2022-10-18T17:41:19.047Z,12.15
2022-10-18T17:43:45.593Z,10.90
2022-10-18T17:46:14.207Z,11.50
2022-10-18T17:48:41.678Z,12.80
2022-10-18T17:51:13.869Z,11.73
2022-10-18T17:53:40.350Z,11.20
2022-10-18T17:56:07.826Z,11.73
2022-10-18T17:58:35.254Z,10.93
2022-10-18T18:01:16.754Z,10.52
2022-10-18T18:03:43.498Z,10.63
2022-10-18T18:06:21.480Z,11.15
2022-10-18T18:08:48.905Z,10.73
2022-10-18T18:11:17.041Z,11.13
2022-10-18T18:13:43.593Z,11.90
2022-10-18T18:16:25.710Z,12.10
2022-10-18T18:18:53.909Z,12.25
2022-10-18T18:21:20.694Z,12.77
2022-10-18T18:23:48.321Z,13.43
2022-10-18T18:26:15.561Z,13.85
2022-10-18T18:28:42.338Z,12.77
2022-10-18T18:31:14.270Z,12.07
2022-10-18T18:33:40.825Z,12.03
2022-10-18T18:36:08.816Z,11.57
2022-10-18T18:38:36.994Z,11.55
2022-10-18T18:41:07.553Z,11.77
2022-10-18T18:43:34.899Z,11.52
2022-10-18T18:46:01.865Z,10.80
2022-10-18T18:48:29.335Z,10.85
2022-10-18T18:50:55.934Z,10.30
2022-10-18T18:53:26.001Z,9.73
2022-10-18T18:56:04.374Z,8.98
2022-10-18T18:58:32.062Z,10.80
2022-10-18T19:00:58.670Z,9.55
2022-10-18T19:03:25.320Z,9.70
2022-10-18T19:05:51.729Z,8.55
2022-10-18T19:08:18.206Z,8.35
2022-10-18T19:10:48.950Z,8.30
2022-10-18T19:13:15.506Z,8.20
2022-10-18T19:15:42.209Z,8.30
2022-10-18T19:18:08.770Z,7.72
2022-10-18T19:20:35.427Z,7.45
2022-10-18T19:23:01.890Z,8.33
2022-10-18T19:25:28.469Z,7.60
2022-10-18T19:27:55.599Z,7.63
2022-10-18T19:30:22.148Z,7.25
2022-10-18T19:32:52.532Z,7.72
2022-10-18T19:35:19.011Z,8.20
2022-10-18T19:37:46.168Z,7.63
2022-10-18T19:40:12.635Z,7.65
2022-10-18T19:42:39.182Z,7.28
2022-10-18T19:45:06.146Z,8.43
2022-10-18T19:47:33.041Z,8.43
2022-10-18T19:49:59.627Z,8.70
2022-10-18T19:52:28.305Z,7.80
2022-10-18T19:54:54.719Z,7.57
2022-10-18T19:57:21.160Z,6.97
2022-10-18T19:59:47.622Z,6.57
2022-10-18T20:02:17.250Z,6.65
2022-10-18T20:04:43.720Z,7.05
2022-10-18T20:07:10.161Z,7.13
2022-10-18T20:09:36.689Z,6.70
2022-10-18T20:12:03.507Z,7.23
2022-10-18T20:14:30.083Z,7.45
2022-10-18T20:16:56.608Z,6.95
2022-10-18T20:19:23.130Z,7.38
2022-10-18T20:21:49.697Z,7.50
2022-10-18T20:24:16.270Z,8.00
2022-10-18T20:26:43.710Z,7.57
2022-10-18T20:29:10.493Z,8.13
2022-10-18T20:31:39.042Z,7.22
2022-10-18T20:34:11.604Z,7.68
2022-10-18T20:36:38.329Z,7.57
2022-10-18T20:39:06.128Z,6.82
2022-10-18T20:41:35.251Z,7.15
2022-10-18T20:44:04.359Z,7.25
2022-10-18T20:46:32.990Z,6.63
2022-10-18T20:49:00.193Z,6.93
2022-10-18T20:51:27.068Z,6.88
2022-10-18T20:53:53.810Z,6.47
2022-10-18T20:56:23.449Z,6.45
2022-10-18T20:58:51.976Z,6.65
2022-10-18T21:01:21.164Z,7.13
2022-10-18T21:03:49.281Z,7.55
2022-10-18T21:06:21.111Z,7.10
2022-10-18T21:08:51.839Z,6.82
2022-10-18T21:11:18.617Z,6.30
2022-10-18T21:13:50.511Z,6.03
2022-10-18T21:16:16.961Z,7.22
2022-10-18T21:18:43.526Z,7.60
2022-10-18T21:21:16.105Z,6.43
2022-10-18T21:23:43.251Z,6.40
2022-10-18T21:26:21.315Z,6.60
2022-10-18T21:28:50.337Z,6.50
2022-10-18T21:31:21.806Z,6.70
2022-10-18T21:33:53.407Z,6.35
2022-10-18T21:36:20.277Z,5.88
2022-10-18T21:38:46.838Z,5.93
2022-10-18T21:41:16.646Z,6.28
2022-10-18T21:43:46.121Z,6.22
2022-10-18T21:46:14.151Z,5.63
2022-10-18T21:48:46.748Z,5.30
2022-10-18T21:51:15.611Z,5.70
2022-10-18T21:53:45.877Z,5.88
2022-10-18T21:56:14.938Z,5.65
2022-10-18T21:58:42.416Z,5.93
2022-10-18T22:01:11.148Z,5.55
2022-10-18T22:03:38.004Z,5.23
2022-10-18T22:06:13.610Z,4.95
2022-10-18T22:09:01.538Z,4.60
2022-10-18T22:11:54.759Z,3.85
2022-10-18T22:14:22.505Z,4.70
2022-10-18T22:16:49.765Z,4.10
2022-10-18T22:19:16.564Z,4.28
2022-10-18T22:21:43.147Z,4.15
2022-10-18T22:24:10.011Z,4.32
2022-10-18T22:26:38.985Z,4.63
2022-10-18T22:29:12.376Z,3.80
2022-10-18T23:05:59.954Z,3.00
2022-10-18T23:16:04.500Z,2.78
2022-10-18T23:18:32.144Z,2.65
2022-10-18T23:21:08.172Z,2.60
2022-10-18T23:23:36.466Z,2.95
2022-10-18T23:26:05.765Z,2.60
2022-10-18T23:28:37.529Z,3.08
2022-10-18T23:31:17.891Z,2.70
2022-10-18T23:33:46.148Z,2.60
2022-10-18T23:36:13.043Z,2.33
2022-10-18T23:38:40.063Z,2.00
2022-10-18T23:41:07.924Z,2.15
2022-10-18T23:43:34.789Z,2.40
2022-10-18T23:46:01.298Z,2.77
2022-10-18T23:48:28.209Z,2.13
2022-10-18T23:50:54.866Z,2.13
2022-10-18T23:53:22.081Z,2.30
2022-10-18T23:55:55.269Z,2.50
2022-10-18T23:58:22.213Z,2.10
